sensor_id;sensor_type;location;lat;lon;timestamp;temperature;humidity
12981;DHT22;6555;50.468;8.480;2023-04-24T00:04:25;14.20;51.80
12981;DHT22;6555;50.468;8.480;2023-04-24T00:09:29;14.20;51.80
12981;DHT22;6555;50.468;8.480;2023-04-24T00:14:33;14.20;51.80
12981;DHT22;6555;50.468;8.480;2023-04-24T00:19:37;14.10;51.80
12981;DHT22;6555;50.468;8.480;2023-04-24T00:24:41;14.10;51.80
12981;DHT22;6555;50.468;8.480;2023-04-24T00:29:46;14.10;51.90
12981;DHT22;6555;50.468;8.480;2023-04-24T00:34:51;14.10;52.10
12981;DHT22;6555;50.468;8.480;2023-04-24T00:39:55;14.10;52.00
12981;DHT22;6555;50.468;8.480;2023-04-24T00:45:02;14.10;52.10
12981;DHT22;6555;50.468;8.480;2023-04-24T00:50:08;14.10;52.20
12981;DHT22;6555;50.468;8.480;2023-04-24T00:55:11;14.10;52.30
12981;DHT22;6555;50.468;8.480;2023-04-24T01:00:16;14.10;52.30
12981;DHT22;6555;50.468;8.480;2023-04-24T01:05:21;14.20;52.40
12981;DHT22;6555;50.468;8.480;2023-04-24T01:10:24;14.20;52.50
12981;DHT22;6555;50.468;8.480;2023-04-24T01:15:30;14.20;52.60
12981;DHT22;6555;50.468;8.480;2023-04-24T01:20:34;14.20;52.60
12981;DHT22;6555;50.468;8.480;2023-04-24T01:25:40;14.20;52.70
12981;DHT22;6555;50.468;8.480;2023-04-24T01:30:44;14.20;52.70
12981;DHT22;6555;50.468;8.480;2023-04-24T01:35:48;14.20;52.70
12981;DHT22;6555;50.468;8.480;2023-04-24T01:40:53;14.20;52.80
12981;DHT22;6555;50.468;8.480;2023-04-24T01:45:59;14.20;53.00
12981;DHT22;6555;50.468;8.480;2023-04-24T01:51:02;14.20;52.90
12981;DHT22;6555;50.468;8.480;2023-04-24T01:56:07;14.20;53.10
12981;DHT22;6555;50.468;8.480;2023-04-24T02:01:17;14.10;53.40
12981;DHT22;6555;50.468;8.480;2023-04-24T02:06:22;14.00;53.40
12981;DHT22;6555;50.468;8.480;2023-04-24T02:11:29;14.00;53.60
12981;DHT22;6555;50.468;8.480;2023-04-24T02:16:35;13.90;53.80
12981;DHT22;6555;50.468;8.480;2023-04-24T02:21:39;13.80;54.20
12981;DHT22;6555;50.468;8.480;2023-04-24T02:26:44;13.80;54.20
12981;DHT22;6555;50.468;8.480;2023-04-24T02:31:48;13.70;54.30
12981;DHT22;6555;50.468;8.480;2023-04-24T02:36:51;13.60;54.20
12981;DHT22;6555;50.468;8.480;2023-04-24T02:41:57;13.60;54.20
12981;DHT22;6555;50.468;8.480;2023-04-24T02:47:04;13.60;55.00
12981;DHT22;6555;50.468;8.480;2023-04-24T02:52:07;13.50;54.30
12981;DHT22;6555;50.468;8.480;2023-04-24T02:57:12;13.40;54.10
12981;DHT22;6555;50.468;8.480;2023-04-24T03:02:18;13.40;54.30
12981;DHT22;6555;50.468;8.480;2023-04-24T03:07:22;13.30;54.40
12981;DHT22;6555;50.468;8.480;2023-04-24T03:12:28;13.20;54.40
12981;DHT22;6555;50.468;8.480;2023-04-24T03:17:31;13.20;54.70
12981;DHT22;6555;50.468;8.480;2023-04-24T03:22:35;13.10;54.70
12981;DHT22;6555;50.468;8.480;2023-04-24T03:27:43;13.10;54.90
12981;DHT22;6555;50.468;8.480;2023-04-24T03:32:55;13.00;54.90
12981;DHT22;6555;50.468;8.480;2023-04-24T03:38:03;13.00;55.20
12981;DHT22;6555;50.468;8.480;2023-04-24T03:43:27;12.90;55.30
12981;DHT22;6555;50.468;8.480;2023-04-24T03:48:33;12.80;55.40
12981;DHT22;6555;50.468;8.480;2023-04-24T03:53:37;12.80;55.40
12981;DHT22;6555;50.468;8.480;2023-04-24T03:58:42;12.70;55.40
12981;DHT22;6555;50.468;8.480;2023-04-24T04:03:46;12.60;55.60
12981;DHT22;6555;50.468;8.480;2023-04-24T04:08:54;12.50;55.60
12981;DHT22;6555;50.468;8.480;2023-04-24T04:14:00;12.50;55.70
12981;DHT22;6555;50.468;8.480;2023-04-24T04:19:08;12.40;55.80
12981;DHT22;6555;50.468;8.480;2023-04-24T04:24:15;12.30;55.90
12981;DHT22;6555;50.468;8.480;2023-04-24T04:29:21;12.20;55.60
12981;DHT22;6555;50.468;8.480;2023-04-24T04:34:26;12.10;55.70
12981;DHT22;6555;50.468;8.480;2023-04-24T04:39:31;12.00;55.40
12981;DHT22;6555;50.468;8.480;2023-04-24T04:44:42;11.90;55.40
12981;DHT22;6555;50.468;8.480;2023-04-24T04:49:52;11.80;55.20
12981;DHT22;6555;50.468;8.480;2023-04-24T04:55:01;11.80;55.20
12981;DHT22;6555;50.468;8.480;2023-04-24T05:00:25;11.70;55.10
12981;DHT22;6555;50.468;8.480;2023-04-24T05:05:31;11.60;55.00
12981;DHT22;6555;50.468;8.480;2023-04-24T05:10:40;11.50;55.00
12981;DHT22;6555;50.468;8.480;2023-04-24T05:15:45;11.50;55.00
12981;DHT22;6555;50.468;8.480;2023-04-24T05:20:50;11.40;54.90
12981;DHT22;6555;50.468;8.480;2023-04-24T05:25:56;11.40;54.80
12981;DHT22;6555;50.468;8.480;2023-04-24T05:31:00;11.40;54.90
12981;DHT22;6555;50.468;8.480;2023-04-24T05:36:06;11.40;55.00
12981;DHT22;6555;50.468;8.480;2023-04-24T05:41:10;11.50;55.20
12981;DHT22;6555;50.468;8.480;2023-04-24T05:46:18;11.50;55.20
12981;DHT22;6555;50.468;8.480;2023-04-24T05:51:22;11.50;55.10
12981;DHT22;6555;50.468;8.480;2023-04-24T05:56:25;11.60;55.00
12981;DHT22;6555;50.468;8.480;2023-04-24T06:01:30;11.60;54.90
12981;DHT22;6555;50.468;8.480;2023-04-24T06:06:42;11.70;55.00
12981;DHT22;6555;50.468;8.480;2023-04-24T06:11:45;11.70;54.70
12981;DHT22;6555;50.468;8.480;2023-04-24T06:16:50;11.60;54.70
12981;DHT22;6555;50.468;8.480;2023-04-24T06:22:07;11.60;54.70
12981;DHT22;6555;50.468;8.480;2023-04-24T06:27:11;11.60;54.90
12981;DHT22;6555;50.468;8.480;2023-04-24T06:32:18;11.70;55.00
12981;DHT22;6555;50.468;8.480;2023-04-24T06:37:22;11.70;54.80
12981;DHT22;6555;50.468;8.480;2023-04-24T06:42:25;11.80;54.80
12981;DHT22;6555;50.468;8.480;2023-04-24T06:47:36;11.90;54.70
12981;DHT22;6555;50.468;8.480;2023-04-24T06:52:40;12.00;54.50
12981;DHT22;6555;50.468;8.480;2023-04-24T06:57:44;12.10;54.40
12981;DHT22;6555;50.468;8.480;2023-04-24T07:02:49;12.20;54.10
12981;DHT22;6555;50.468;8.480;2023-04-24T07:07:52;12.20;54.00
12981;DHT22;6555;50.468;8.480;2023-04-24T07:12:56;12.30;54.10
12981;DHT22;6555;50.468;8.480;2023-04-24T07:18:01;12.40;53.80
12981;DHT22;6555;50.468;8.480;2023-04-24T07:23:06;12.50;53.90
12981;DHT22;6555;50.468;8.480;2023-04-24T07:28:10;12.60;54.00
12981;DHT22;6555;50.468;8.480;2023-04-24T07:33:18;12.70;54.10
12981;DHT22;6555;50.468;8.480;2023-04-24T07:38:21;13.00;53.70
12981;DHT22;6555;50.468;8.480;2023-04-24T07:43:24;13.10;53.60
12981;DHT22;6555;50.468;8.480;2023-04-24T07:48:29;13.20;53.60
12981;DHT22;6555;50.468;8.480;2023-04-24T07:53:33;13.30;53.30
12981;DHT22;6555;50.468;8.480;2023-04-24T07:58:39;13.40;53.50
12981;DHT22;6555;50.468;8.480;2023-04-24T08:03:43;13.60;53.50
12981;DHT22;6555;50.468;8.480;2023-04-24T08:08:47;13.70;53.00
12981;DHT22;6555;50.468;8.480;2023-04-24T08:13:50;13.80;52.30
12981;DHT22;6555;50.468;8.480;2023-04-24T08:18:55;13.80;52.30
12981;DHT22;6555;50.468;8.480;2023-04-24T08:23:59;13.80;51.80
12981;DHT22;6555;50.468;8.480;2023-04-24T08:29:04;13.70;51.70
12981;DHT22;6555;50.468;8.480;2023-04-24T08:34:10;13.60;51.10
12981;DHT22;6555;50.468;8.480;2023-04-24T08:39:14;13.50;51.30
12981;DHT22;6555;50.468;8.480;2023-04-24T08:44:18;13.40;51.40
12981;DHT22;6555;50.468;8.480;2023-04-24T08:49:24;13.30;51.50
12981;DHT22;6555;50.468;8.480;2023-04-24T08:54:35;13.20;51.70
12981;DHT22;6555;50.468;8.480;2023-04-24T08:59:39;13.20;51.60
12981;DHT22;6555;50.468;8.480;2023-04-24T09:04:46;13.10;51.70
12981;DHT22;6555;50.468;8.480;2023-04-24T09:09:51;13.00;51.80
12981;DHT22;6555;50.468;8.480;2023-04-24T09:14:55;13.10;52.20
12981;DHT22;6555;50.468;8.480;2023-04-24T09:20:01;13.10;52.10
12981;DHT22;6555;50.468;8.480;2023-04-24T09:25:06;13.00;52.20
12981;DHT22;6555;50.468;8.480;2023-04-24T09:30:10;13.10;52.30
12981;DHT22;6555;50.468;8.480;2023-04-24T09:35:15;13.10;52.30
12981;DHT22;6555;50.468;8.480;2023-04-24T09:40:23;13.10;52.30
12981;DHT22;6555;50.468;8.480;2023-04-24T09:45:36;13.10;52.40
12981;DHT22;6555;50.468;8.480;2023-04-24T09:50:45;13.20;52.60
12981;DHT22;6555;50.468;8.480;2023-04-24T09:55:49;13.20;52.70
12981;DHT22;6555;50.468;8.480;2023-04-24T10:00:54;13.30;52.90
12981;DHT22;6555;50.468;8.480;2023-04-24T10:06:00;13.30;52.90
12981;DHT22;6555;50.468;8.480;2023-04-24T10:11:04;13.30;52.90
12981;DHT22;6555;50.468;8.480;2023-04-24T10:16:09;13.30;53.10
12981;DHT22;6555;50.468;8.480;2023-04-24T10:21:15;13.20;53.10
12981;DHT22;6555;50.468;8.480;2023-04-24T10:26:19;13.20;53.30
12981;DHT22;6555;50.468;8.480;2023-04-24T10:31:23;13.00;53.20
12981;DHT22;6555;50.468;8.480;2023-04-24T10:36:32;12.90;53.20
12981;DHT22;6555;50.468;8.480;2023-04-24T10:41:37;12.70;53.60
12981;DHT22;6555;50.468;8.480;2023-04-24T10:46:44;12.60;54.20
12981;DHT22;6555;50.468;8.480;2023-04-24T10:51:50;12.50;54.80
12981;DHT22;6555;50.468;8.480;2023-04-24T10:57:25;12.40;55.40
12981;DHT22;6555;50.468;8.480;2023-04-24T11:02:38;12.50;56.60
12981;DHT22;6555;50.468;8.480;2023-04-24T11:08:12;12.70;56.60
12981;DHT22;6555;50.468;8.480;2023-04-24T11:13:16;12.80;56.70
12981;DHT22;6555;50.468;8.480;2023-04-24T11:18:19;13.00;56.50
12981;DHT22;6555;50.468;8.480;2023-04-24T11:23:24;13.00;56.50
12981;DHT22;6555;50.468;8.480;2023-04-24T11:28:28;13.10;56.30
12981;DHT22;6555;50.468;8.480;2023-04-24T11:33:31;13.20;56.80
12981;DHT22;6555;50.468;8.480;2023-04-24T11:38:36;13.20;56.00
12981;DHT22;6555;50.468;8.480;2023-04-24T11:43:44;13.30;56.10
12981;DHT22;6555;50.468;8.480;2023-04-24T11:48:48;13.30;56.00
12981;DHT22;6555;50.468;8.480;2023-04-24T11:53:56;13.40;55.50
12981;DHT22;6555;50.468;8.480;2023-04-24T11:59:05;13.30;55.60
12981;DHT22;6555;50.468;8.480;2023-04-24T12:04:09;13.20;55.40
12981;DHT22;6555;50.468;8.480;2023-04-24T12:09:14;13.20;55.40
12981;DHT22;6555;50.468;8.480;2023-04-24T12:14:19;13.00;55.20
12981;DHT22;6555;50.468;8.480;2023-04-24T12:19:23;12.90;55.20
12981;DHT22;6555;50.468;8.480;2023-04-24T12:24:29;12.80;55.10
12981;DHT22;6555;50.468;8.480;2023-04-24T12:29:33;12.70;55.20
12981;DHT22;6555;50.468;8.480;2023-04-24T12:34:36;12.50;55.20
12981;DHT22;6555;50.468;8.480;2023-04-24T12:39:57;12.40;55.30
12981;DHT22;6555;50.468;8.480;2023-04-24T12:45:03;12.30;55.70
12981;DHT22;6555;50.468;8.480;2023-04-24T12:50:07;12.30;55.90
12981;DHT22;6555;50.468;8.480;2023-04-24T12:55:16;12.30;56.50
12981;DHT22;6555;50.468;8.480;2023-04-24T13:00:20;12.50;57.50
12981;DHT22;6555;50.468;8.480;2023-04-24T13:05:23;12.70;58.10
12981;DHT22;6555;50.468;8.480;2023-04-24T13:10:28;12.90;58.70
12981;DHT22;6555;50.468;8.480;2023-04-24T13:15:34;13.30;58.10
12981;DHT22;6555;50.468;8.480;2023-04-24T13:20:37;13.40;57.40
12981;DHT22;6555;50.468;8.480;2023-04-24T13:25:44;13.60;57.50
12981;DHT22;6555;50.468;8.480;2023-04-24T13:30:47;13.80;57.10
12981;DHT22;6555;50.468;8.480;2023-04-24T13:35:53;13.80;56.50
12981;DHT22;6555;50.468;8.480;2023-04-24T13:40:57;13.80;56.10
12981;DHT22;6555;50.468;8.480;2023-04-24T13:46:01;13.70;56.10
12981;DHT22;6555;50.468;8.480;2023-04-24T13:51:05;13.60;56.20
12981;DHT22;6555;50.468;8.480;2023-04-24T13:56:10;13.60;57.30
12981;DHT22;6555;50.468;8.480;2023-04-24T14:01:14;13.70;57.60
12981;DHT22;6555;50.468;8.480;2023-04-24T14:06:18;13.90;57.00
12981;DHT22;6555;50.468;8.480;2023-04-24T14:11:23;14.00;56.70
12981;DHT22;6555;50.468;8.480;2023-04-24T14:16:27;14.10;56.80
12981;DHT22;6555;50.468;8.480;2023-04-24T14:21:38;14.30;56.30
12981;DHT22;6555;50.468;8.480;2023-04-24T14:26:43;14.40;56.30
12981;DHT22;6555;50.468;8.480;2023-04-24T14:31:48;14.60;55.60
12981;DHT22;6555;50.468;8.480;2023-04-24T14:36:52;14.70;56.20
12981;DHT22;6555;50.468;8.480;2023-04-24T14:41:57;14.80;55.90
12981;DHT22;6555;50.468;8.480;2023-04-24T14:47:01;14.90;55.50
12981;DHT22;6555;50.468;8.480;2023-04-24T14:52:05;15.10;53.90
12981;DHT22;6555;50.468;8.480;2023-04-24T14:57:13;15.20;54.00
12981;DHT22;6555;50.468;8.480;2023-04-24T15:02:19;15.20;52.80
12981;DHT22;6555;50.468;8.480;2023-04-24T15:07:32;15.10;52.30
12981;DHT22;6555;50.468;8.480;2023-04-24T15:12:47;14.90;52.20
12981;DHT22;6555;50.468;8.480;2023-04-24T15:17:54;14.70;52.20
12981;DHT22;6555;50.468;8.480;2023-04-24T15:23:09;14.50;52.70
12981;DHT22;6555;50.468;8.480;2023-04-24T15:30:09;14.40;52.80
12981;DHT22;6555;50.468;8.480;2023-04-24T15:35:29;14.30;52.80
12981;DHT22;6555;50.468;8.480;2023-04-24T15:41:50;14.30;53.00
12981;DHT22;6555;50.468;8.480;2023-04-24T15:48:19;14.20;52.50
12981;DHT22;6555;50.468;8.480;2023-04-24T15:54:30;14.00;52.40
12981;DHT22;6555;50.468;8.480;2023-04-24T16:01:08;13.80;52.50
12981;DHT22;6555;50.468;8.480;2023-04-24T16:07:21;13.70;53.20
12981;DHT22;6555;50.468;8.480;2023-04-24T16:18:20;13.70;53.60
12981;DHT22;6555;50.468;8.480;2023-04-24T16:29:53;13.60;53.60
12981;DHT22;6555;50.468;8.480;2023-04-24T16:35:01;13.60;53.60
12981;DHT22;6555;50.468;8.480;2023-04-24T16:41:19;13.60;53.60
12981;DHT22;6555;50.468;8.480;2023-04-24T16:59:18;13.80;53.70
12981;DHT22;6555;50.468;8.480;2023-04-24T17:04:31;14.00;53.90
12981;DHT22;6555;50.468;8.480;2023-04-24T17:09:43;14.10;54.00
12981;DHT22;6555;50.468;8.480;2023-04-24T17:14:55;14.30;53.90
12981;DHT22;6555;50.468;8.480;2023-04-24T17:20:12;14.30;53.90
12981;DHT22;6555;50.468;8.480;2023-04-24T17:25:57;14.30;53.10
12981;DHT22;6555;50.468;8.480;2023-04-24T17:31:13;14.20;52.70
12981;DHT22;6555;50.468;8.480;2023-04-24T17:36:43;14.20;52.80
12981;DHT22;6555;50.468;8.480;2023-04-24T17:42:01;14.10;52.60
12981;DHT22;6555;50.468;8.480;2023-04-24T17:47:32;14.00;52.60
12981;DHT22;6555;50.468;8.480;2023-04-24T17:52:52;13.90;52.90
12981;DHT22;6555;50.468;8.480;2023-04-24T17:58:25;13.80;52.90
12981;DHT22;6555;50.468;8.480;2023-04-24T18:03:47;13.70;53.10
12981;DHT22;6555;50.468;8.480;2023-04-24T18:09:22;13.70;53.20
12981;DHT22;6555;50.468;8.480;2023-04-24T18:14:40;13.70;53.30
12981;DHT22;6555;50.468;8.480;2023-04-24T18:20:26;13.60;53.90
12981;DHT22;6555;50.468;8.480;2023-04-24T18:25:42;13.60;53.40
12981;DHT22;6555;50.468;8.480;2023-04-24T18:31:17;13.60;53.40
12981;DHT22;6555;50.468;8.480;2023-04-24T18:36:34;13.60;53.40
12981;DHT22;6555;50.468;8.480;2023-04-24T18:42:04;13.50;53.40
12981;DHT22;6555;50.468;8.480;2023-04-24T18:47:29;13.50;53.60
12981;DHT22;6555;50.468;8.480;2023-04-24T18:53:01;13.50;53.50
12981;DHT22;6555;50.468;8.480;2023-04-24T18:58:18;13.50;53.70
12981;DHT22;6555;50.468;8.480;2023-04-24T19:03:53;13.50;53.60
12981;DHT22;6555;50.468;8.480;2023-04-24T19:09:18;13.50;53.80
12981;DHT22;6555;50.468;8.480;2023-04-24T19:14:48;13.50;53.60
12981;DHT22;6555;50.468;8.480;2023-04-24T19:20:08;13.50;53.80
12981;DHT22;6555;50.468;8.480;2023-04-24T19:25:42;13.40;53.60
12981;DHT22;6555;50.468;8.480;2023-04-24T19:31:44;13.40;53.50
12981;DHT22;6555;50.468;8.480;2023-04-24T19:44:09;13.30;53.70
12981;DHT22;6555;50.468;8.480;2023-04-24T19:49:46;13.10;53.60
12981;DHT22;6555;50.468;8.480;2023-04-24T19:55:06;13.10;53.60
12981;DHT22;6555;50.468;8.480;2023-04-24T20:06:11;12.90;53.80
12981;DHT22;6555;50.468;8.480;2023-04-24T20:11:55;12.90;54.00
12981;DHT22;6555;50.468;8.480;2023-04-24T20:17:13;12.80;53.80
12981;DHT22;6555;50.468;8.480;2023-04-24T20:22:46;12.80;53.70
12981;DHT22;6555;50.468;8.480;2023-04-24T20:28:10;12.70;53.90
12981;DHT22;6555;50.468;8.480;2023-04-24T20:33:41;12.70;54.00
12981;DHT22;6555;50.468;8.480;2023-04-24T20:39:01;12.60;54.00
12981;DHT22;6555;50.468;8.480;2023-04-24T20:44:39;12.60;54.30
12981;DHT22;6555;50.468;8.480;2023-04-24T20:49:57;12.50;54.20
12981;DHT22;6555;50.468;8.480;2023-04-24T20:55:29;12.50;54.10
12981;DHT22;6555;50.468;8.480;2023-04-24T21:00:49;12.50;54.30
12981;DHT22;6555;50.468;8.480;2023-04-24T21:06:34;12.50;54.30
12981;DHT22;6555;50.468;8.480;2023-04-24T21:11:51;12.50;54.40
12981;DHT22;6555;50.468;8.480;2023-04-24T21:17:22;12.50;54.20
12981;DHT22;6555;50.468;8.480;2023-04-24T21:22:40;12.50;54.40
12981;DHT22;6555;50.468;8.480;2023-04-24T21:28:13;12.50;54.30
12981;DHT22;6555;50.468;8.480;2023-04-24T21:33:29;12.40;54.40
12981;DHT22;6555;50.468;8.480;2023-04-24T21:39:00;12.40;54.30
12981;DHT22;6555;50.468;8.480;2023-04-24T21:44:21;12.40;54.50
12981;DHT22;6555;50.468;8.480;2023-04-24T21:49:54;12.40;54.20
12981;DHT22;6555;50.468;8.480;2023-04-24T21:55:15;12.30;54.70
12981;DHT22;6555;50.468;8.480;2023-04-24T22:00:46;12.20;54.50
12981;DHT22;6555;50.468;8.480;2023-04-24T22:06:03;12.20;54.70
12981;DHT22;6555;50.468;8.480;2023-04-24T22:11:35;12.10;54.60
12981;DHT22;6555;50.468;8.480;2023-04-24T22:16:53;12.10;55.00
12981;DHT22;6555;50.468;8.480;2023-04-24T22:22:32;12.00;54.70
12981;DHT22;6555;50.468;8.480;2023-04-24T22:27:50;12.00;55.20
12981;DHT22;6555;50.468;8.480;2023-04-24T22:33:23;11.90;55.10
12981;DHT22;6555;50.468;8.480;2023-04-24T22:38:40;11.80;55.30
12981;DHT22;6555;50.468;8.480;2023-04-24T22:44:21;11.80;55.00
12981;DHT22;6555;50.468;8.480;2023-04-24T22:49:39;11.80;55.40
12981;DHT22;6555;50.468;8.480;2023-04-24T22:55:12;11.70;55.20
12981;DHT22;6555;50.468;8.480;2023-04-24T23:00:30;11.70;55.60
12981;DHT22;6555;50.468;8.480;2023-04-24T23:06:01;11.80;55.40
12981;DHT22;6555;50.468;8.480;2023-04-24T23:11:19;11.80;55.70
12981;DHT22;6555;50.468;8.480;2023-04-24T23:16:50;11.80;55.40
12981;DHT22;6555;50.468;8.480;2023-04-24T23:22:07;11.80;55.70
12981;DHT22;6555;50.468;8.480;2023-04-24T23:27:37;11.80;55.30
12981;DHT22;6555;50.468;8.480;2023-04-24T23:32:55;11.90;55.70
12981;DHT22;6555;50.468;8.480;2023-04-24T23:38:28;11.80;55.30
12981;DHT22;6555;50.468;8.480;2023-04-24T23:43:56;11.90;55.70
12981;DHT22;6555;50.468;8.480;2023-04-24T23:49:27;11.80;55.30
12981;DHT22;6555;50.468;8.480;2023-04-24T23:54:44;11.80;55.50
